Burnet, Texas
Current Conditions -  °F | °C
As of 3:53 AM on Tuesday 27 Jan 2015 (Local Time) from KBMQ Reporting Station
Clear Clear  
Wind Chill: 50°   Ceiling: Unl
Heat Index: 50°   Visibility: 10mi
Dew Point: 34°   Wind: 7mph
Humidity: 54%   Direction: 280°W
Pressure: 30.17"   Gusts: NA
Location:  30.76°N, 98.23°W
Report Text: KBMQ 270953Z AUTO 28006KT 10SM CLR 10/01 A3017 RMK AO2 SLP210 T01000011 $
Loading
Personal Weather Stations






























Interactive Weather Map New forecast layout! Learn more

10-Day Weather Forecast

Advertisements
Track Severe Weather on mobile